DAUG/GHA METAR and TAF weather

Enter ICAO airport designator
Station Type Date Time Source
DAUG METAR 2018/10/22 16:00 UTC NOAA

DAUG 221600Z 30011KT CAVOK 30/01 Q1017


Station Type Date Time Source
DAUG Decoded METAR 2018/10/22 16:00 UTC NOAA

Ghardaia, Algeria (DAUG) 32-23N 003-49E 450M
Oct 22, 2018 - 12:00 PM EDT / 2018.10.22 1600 UTC
Wind: from the WNW (300 degrees) at 13 MPH (11 KT):0
Visibility: greater than 7 mile(s):0
Temperature: 86 F (30 C)
Dew Point: 33 F (1 C)
Relative Humidity: 15%
Pressure (altimeter): 30.03 in. Hg (1017 hPa)
ob: DAUG 221600Z 30011KT CAVOK 30/01 Q1017
cycle: 16

Station Type Date Time Source
DAUG TAF 2018/10/22 12:33 UTC NOAA

TAF DAUG 221100Z 2212/2312 30008KT CAVOK
BECMG 2223/2302 02010KT PROB30
TEMPO 2300/2304 02015G25KT 5000 DRSA


Example: see airport list